createdAt,value
2019-04-03T00:00:00.423Z,99.90
2019-04-03T00:05:05.076Z,99.90
2019-04-03T00:10:07.409Z,99.90
2019-04-03T00:15:09.842Z,99.90
2019-04-03T00:20:12.375Z,99.90
2019-04-03T00:25:13.854Z,99.90
2019-04-03T00:30:15.802Z,99.90
2019-04-03T00:35:17.298Z,99.90
2019-04-03T00:40:18.827Z,99.90
2019-04-03T00:45:20.301Z,99.90
2019-04-03T00:50:22.115Z,99.90
2019-04-03T00:55:26.229Z,99.90
2019-04-03T01:00:27.428Z,99.90
2019-04-03T01:05:29.089Z,99.90
2019-04-03T01:10:30.819Z,99.90
2019-04-03T01:15:32.291Z,99.90
2019-04-03T01:20:34.575Z,99.90
2019-04-03T01:25:39.138Z,99.90
2019-04-03T01:30:40.980Z,99.90
2019-04-03T01:35:42.893Z,99.90
2019-04-03T01:40:44.395Z,99.90
2019-04-03T01:45:46.031Z,99.90
2019-04-03T01:50:47.841Z,99.90
2019-04-03T01:55:49.719Z,99.90
2019-04-03T02:00:51.490Z,99.90
2019-04-03T02:05:52.959Z,99.90
2019-04-03T02:10:54.540Z,99.90
2019-04-03T02:15:56.050Z,99.90
2019-04-03T02:20:58.148Z,99.90
2019-04-03T02:26:00.740Z,99.90
2019-04-03T02:31:04.907Z,99.90
2019-04-03T02:36:06.654Z,99.90
2019-04-03T02:41:08.187Z,99.90
2019-04-03T02:46:09.752Z,99.90
2019-04-03T02:51:11.318Z,99.90
2019-04-03T02:56:13.826Z,99.90
2019-04-03T03:01:15.698Z,99.90
2019-04-03T03:06:17.445Z,99.90
2019-04-03T03:11:23.238Z,99.90
2019-04-03T03:16:26.008Z,99.90
2019-04-03T03:21:28.491Z,99.90
2019-04-03T03:26:30.370Z,99.90
2019-04-03T03:32:00.321Z,99.90
2019-04-03T03:36:36.241Z,99.90
2019-04-03T03:41:38.933Z,99.90
2019-04-03T03:46:40.746Z,99.90
2019-04-03T03:51:43.836Z,99.90
2019-04-03T03:56:45.322Z,99.90
2019-04-03T04:01:47.991Z,99.90
2019-04-03T04:06:49.484Z,99.90
2019-04-03T04:11:51.108Z,99.90
2019-04-03T04:16:54.451Z,99.90
2019-04-03T04:21:56.520Z,99.90
2019-04-03T04:26:58.757Z,99.90
2019-04-03T04:32:00.406Z,99.90
2019-04-03T04:37:03.019Z,99.90
2019-04-03T04:42:05.049Z,99.90
2019-04-03T04:47:07.219Z,99.90
2019-04-03T04:52:08.954Z,99.90
2019-04-03T04:57:10.676Z,99.90
2019-04-03T05:02:12.166Z,99.90
2019-04-03T05:07:16.392Z,99.90
2019-04-03T05:12:17.448Z,99.90
2019-04-03T05:17:19.097Z,99.90
2019-04-03T05:22:23.229Z,99.90
2019-04-03T05:27:24.822Z,99.90
2019-04-03T05:32:26.371Z,99.90
2019-04-03T05:37:28.061Z,99.90
2019-04-03T05:42:30.003Z,99.90
2019-04-03T05:47:31.456Z,99.90
2019-04-03T05:52:33.165Z,99.90
2019-04-03T05:57:36.374Z,99.90
2019-04-03T06:02:37.871Z,99.90
2019-04-03T06:07:39.535Z,99.90
2019-04-03T06:12:41.107Z,99.90
2019-04-03T06:17:42.598Z,99.90
2019-04-03T06:22:44.094Z,99.90
2019-04-03T06:27:46.423Z,99.90
2019-04-03T06:32:48.712Z,99.90
2019-04-03T06:37:51.390Z,99.90
2019-04-03T06:42:54.359Z,99.90
2019-04-03T06:47:55.782Z,99.90
2019-04-03T06:52:57.686Z,99.90
2019-04-03T06:57:59.536Z,99.90
2019-04-03T07:03:01.515Z,99.90
2019-04-03T07:08:05.907Z,99.90
2019-04-03T07:13:07.776Z,99.90
2019-04-03T07:18:09.232Z,99.90
2019-04-03T07:23:11.028Z,99.90
2019-04-03T07:28:12.538Z,99.90
2019-04-03T07:33:16.503Z,99.90
2019-04-03T07:38:22.150Z,99.90
2019-04-03T07:43:26.151Z,99.90
2019-04-03T07:48:27.336Z,99.90
2019-04-03T07:53:28.909Z,99.90
2019-04-03T07:58:31.884Z,99.90
2019-04-03T08:03:33.748Z,99.90
2019-04-03T08:08:35.585Z,99.90
2019-04-03T08:13:38.419Z,99.90
2019-04-03T08:18:40.010Z,99.90
2019-04-03T08:23:41.855Z,99.90
2019-04-03T08:28:43.616Z,99.90
2019-04-03T08:33:45.313Z,99.90
2019-04-03T08:38:46.846Z,99.90
2019-04-03T08:43:48.723Z,99.90
2019-04-03T08:48:50.760Z,99.90
2019-04-03T08:53:54.344Z,99.90
2019-04-03T08:58:57.340Z,99.90
2019-04-03T09:03:59.201Z,99.90
2019-04-03T09:09:00.778Z,99.90
2019-04-03T09:14:02.351Z,99.90
2019-04-03T09:19:03.987Z,99.90
2019-04-03T09:24:06.061Z,99.90
2019-04-03T09:29:12.629Z,99.90
2019-04-03T09:34:13.523Z,99.90
2019-04-03T09:39:15.191Z,99.90
2019-04-03T09:44:16.636Z,99.90
2019-04-03T09:49:18.117Z,99.90
2019-04-03T09:54:19.932Z,99.90
2019-04-03T09:59:21.407Z,99.90
2019-04-03T10:04:25.369Z,99.90
2019-04-03T10:09:26.393Z,99.90
2019-04-03T10:14:28.929Z,99.90
2019-04-03T10:19:30.522Z,99.90
2019-04-03T10:24:32.294Z,99.90
2019-04-03T10:29:34.302Z,99.90
2019-04-03T10:34:36.231Z,99.90
2019-04-03T10:39:40.991Z,99.90
2019-04-03T10:44:41.557Z,99.90
2019-04-03T10:49:43.023Z,99.90
2019-04-03T10:54:44.659Z,99.90
2019-04-03T10:59:46.234Z,99.90
2019-04-03T11:04:48.768Z,99.90
2019-04-03T11:09:50.604Z,98.30
2019-04-03T11:14:52.160Z,97.20
2019-04-03T11:19:53.917Z,96.60
2019-04-03T11:24:55.423Z,95.20
2019-04-03T11:29:57.273Z,95.50
2019-04-03T11:34:58.805Z,95.50
2019-04-03T11:40:04.706Z,94.90
2019-04-03T11:45:06.908Z,95.00
2019-04-03T11:50:12.363Z,94.40
2019-04-03T11:55:14.543Z,93.10
2019-04-03T12:00:21.448Z,94.00
2019-04-03T12:05:23.032Z,92.00
2019-04-03T12:10:26.066Z,92.90
2019-04-03T12:15:28.097Z,93.00
2019-04-03T12:20:29.723Z,93.30
2019-04-03T12:25:34.308Z,92.90
2019-04-03T12:30:35.796Z,91.80
2019-04-03T12:35:40.685Z,92.00
2019-04-03T12:40:41.263Z,92.80
2019-04-03T12:45:42.730Z,92.10
2019-04-03T12:50:44.640Z,91.40
2019-04-03T12:55:46.595Z,92.00
2019-04-03T13:00:49.073Z,91.30
2019-04-03T13:05:50.740Z,91.70
2019-04-03T13:10:52.349Z,91.30
2019-04-03T13:15:53.902Z,90.70
2019-04-03T13:20:55.484Z,90.90
2019-04-03T13:25:57.452Z,90.90
2019-04-03T13:30:59.045Z,91.80
2019-04-03T13:36:00.628Z,91.50
2019-04-03T13:41:04.624Z,92.00
2019-04-03T13:46:05.852Z,91.90
2019-04-03T13:51:07.393Z,91.90
2019-04-03T13:56:11.167Z,90.50
2019-04-03T14:01:12.699Z,87.40
2019-04-03T14:06:14.594Z,86.30
2019-04-03T14:11:16.467Z,86.40
2019-04-03T14:16:21.666Z,86.00
2019-04-03T14:21:21.362Z,88.40
2019-04-03T14:26:22.852Z,89.80
2019-04-03T14:31:34.852Z,90.10
2019-04-03T14:36:28.959Z,90.40
2019-04-03T14:41:30.920Z,91.30
2019-04-03T14:46:32.494Z,91.30
2019-04-03T14:51:34.215Z,91.50
2019-04-03T14:56:36.226Z,91.60
2019-04-03T15:01:38.457Z,91.30
2019-04-03T15:06:40.246Z,92.10
2019-04-03T15:11:41.863Z,91.50
2019-04-03T15:16:43.341Z,91.90
2019-04-03T15:21:45.292Z,92.00
2019-04-03T15:26:47.007Z,92.50
2019-04-03T15:31:48.583Z,92.30
2019-04-03T15:36:51.549Z,91.40
2019-04-03T15:41:54.102Z,92.00
2019-04-03T15:46:56.137Z,91.60
2019-04-03T15:51:58.089Z,91.80
2019-04-03T15:56:59.953Z,91.00
2019-04-03T16:02:02.051Z,91.70
2019-04-03T16:07:05.109Z,91.20
2019-04-03T16:12:07.905Z,91.30
2019-04-03T16:17:10.258Z,90.90
2019-04-03T16:22:11.786Z,91.00
2019-04-03T16:27:13.258Z,91.50
2019-04-03T16:32:15.036Z,91.60
2019-04-03T16:37:16.915Z,92.10
2019-04-03T16:42:18.479Z,92.50
2019-04-03T16:47:20.059Z,92.90
2019-04-03T16:52:22.179Z,93.40
2019-04-03T16:57:24.115Z,93.10
2019-04-03T17:02:27.876Z,93.90
2019-04-03T17:07:30.435Z,94.20
2019-04-03T17:12:32.202Z,94.60
2019-04-03T17:17:35.478Z,94.50
2019-04-03T17:22:40.848Z,94.60
2019-04-03T17:27:54.088Z,94.90
2019-04-03T17:32:52.100Z,96.00
2019-04-03T17:37:54.073Z,96.20
2019-04-03T17:42:55.566Z,96.30
2019-04-03T17:47:57.369Z,96.80
2019-04-03T17:52:58.899Z,97.00
2019-04-03T17:58:00.363Z,96.70
2019-04-03T18:03:01.855Z,96.70
2019-04-03T18:08:03.423Z,97.00
2019-04-03T18:13:04.987Z,97.50
2019-04-03T18:18:06.585Z,97.90
2019-04-03T18:23:10.587Z,98.30
2019-04-03T18:28:11.861Z,98.70
2019-04-03T18:33:16.684Z,99.10
2019-04-03T18:38:17.102Z,99.40
2019-04-03T18:43:21.597Z,99.70
2019-04-03T18:48:22.391Z,99.90
2019-04-03T18:53:24.145Z,99.90
2019-04-03T18:58:25.663Z,99.90
2019-04-03T19:03:27.538Z,99.90
2019-04-03T19:08:29.504Z,99.90
2019-04-03T19:13:31.081Z,99.90
2019-04-03T19:18:32.669Z,99.90
2019-04-03T19:23:34.435Z,99.90
2019-04-03T19:28:36.162Z,99.90
2019-04-03T19:33:37.667Z,99.90
2019-04-03T19:38:39.616Z,99.90
2019-04-03T19:43:41.590Z,99.90
2019-04-03T19:48:43.263Z,99.90
2019-04-03T19:53:53.610Z,99.90
2019-04-03T19:58:48.580Z,99.90
2019-04-03T20:03:50.152Z,99.90
2019-04-03T20:09:11.611Z,99.90
2019-04-03T20:14:13.161Z,99.90
2019-04-03T20:19:15.919Z,99.90
2019-04-03T20:24:17.685Z,99.90
2019-04-03T20:29:19.209Z,99.90
2019-04-03T20:34:21.131Z,99.90
2019-04-03T20:39:22.652Z,99.90
2019-04-03T20:44:24.108Z,99.90
2019-04-03T20:49:25.586Z,99.90
2019-04-03T20:54:27.238Z,99.90
2019-04-03T20:59:30.154Z,99.90
2019-04-03T21:04:32.287Z,99.90
2019-04-03T21:09:33.787Z,99.90
2019-04-03T21:14:35.279Z,99.90
2019-04-03T21:19:36.825Z,99.90
2019-04-03T21:24:38.665Z,99.90
2019-04-03T21:29:40.140Z,99.90
2019-04-03T21:34:42.934Z,99.90
2019-04-03T21:39:44.535Z,99.90
2019-04-03T21:44:46.025Z,99.90
2019-04-03T21:49:48.176Z,99.90
2019-04-03T21:54:49.867Z,99.90
2019-04-03T21:59:51.335Z,99.90
2019-04-03T22:04:54.027Z,99.90
2019-04-03T22:09:56.059Z,99.90
2019-04-03T22:14:58.139Z,99.90
2019-04-03T22:19:59.656Z,99.90
2019-04-03T22:25:01.211Z,99.90
2019-04-03T22:30:04.795Z,99.90
2019-04-03T22:35:06.358Z,99.90
2019-04-03T22:40:10.090Z,99.90
2019-04-03T22:45:11.431Z,99.90
2019-04-03T22:50:13.255Z,99.90
2019-04-03T22:55:15.510Z,99.90
2019-04-03T23:00:17.375Z,99.90
2019-04-03T23:05:18.881Z,99.90
2019-04-03T23:10:20.355Z,99.90
2019-04-03T23:15:22.188Z,99.90
2019-04-03T23:20:23.683Z,99.90
2019-04-03T23:25:25.132Z,99.90
2019-04-03T23:30:26.597Z,99.90
2019-04-03T23:35:28.072Z,99.90
2019-04-03T23:40:29.655Z,99.90
2019-04-03T23:45:31.604Z,99.90
2019-04-03T23:50:33.075Z,99.90
2019-04-03T23:55:36.241Z,99.90
